createdAt,value
2019-02-19T00:01:03.991Z,7.7
2019-02-19T00:02:05.386Z,7.7
2019-02-19T00:03:06.935Z,7.8
2019-02-19T00:04:08.491Z,7.8
2019-02-19T00:05:09.873Z,7.8
2019-02-19T00:06:11.429Z,7.9
2019-02-19T00:07:12.807Z,7.9
2019-02-19T00:08:14.389Z,7.9
2019-02-19T00:09:15.613Z,7.9
2019-02-19T00:10:17.155Z,7.9
2019-02-19T00:11:18.541Z,7.9
2019-02-19T00:12:19.905Z,7.9
2019-02-19T00:13:21.475Z,7.9
2019-02-19T00:14:23.035Z,7.9
2019-02-19T00:15:24.567Z,7.9
2019-02-19T00:16:25.974Z,7.9
2019-02-19T00:17:27.543Z,7.9
2019-02-19T00:18:29.072Z,7.9
2019-02-19T00:19:30.454Z,7.9
2019-02-19T00:20:31.827Z,7.9
2019-02-19T00:21:33.263Z,7.9
2019-02-19T00:22:34.868Z,7.8
2019-02-19T00:23:36.417Z,7.9
2019-02-19T00:24:37.986Z,7.9
2019-02-19T00:25:39.415Z,7.9
2019-02-19T00:26:40.849Z,7.9
2019-02-19T00:27:42.461Z,7.9
2019-02-19T00:28:43.688Z,7.9
2019-02-19T00:29:45.087Z,7.9
2019-02-19T00:30:46.621Z,7.9
2019-02-19T00:31:48.019Z,7.9
2019-02-19T00:32:49.550Z,7.9
2019-02-19T00:33:51.082Z,7.8
2019-02-19T00:34:52.621Z,7.8
2019-02-19T00:35:53.998Z,7.8
2019-02-19T00:36:55.367Z,7.8
2019-02-19T00:37:56.907Z,7.9
2019-02-19T00:38:58.463Z,7.9
2019-02-19T00:39:59.889Z,7.9
2019-02-19T00:41:01.267Z,7.9
2019-02-19T00:42:02.649Z,7.8
2019-02-19T00:43:04.092Z,7.8
2019-02-19T00:44:05.334Z,7.8
2019-02-19T00:45:06.715Z,7.8
2019-02-19T00:46:08.115Z,7.8
2019-02-19T00:47:09.639Z,7.8
2019-02-19T00:48:10.867Z,7.8
2019-02-19T00:49:12.473Z,7.8
2019-02-19T00:50:13.849Z,7.8
2019-02-19T00:51:15.079Z,7.8
2019-02-19T00:52:16.607Z,7.9
2019-02-19T00:53:17.974Z,7.8
2019-02-19T00:54:19.532Z,7.8
2019-02-19T00:55:21.050Z,7.8
2019-02-19T00:56:22.586Z,7.8
2019-02-19T00:57:24.129Z,7.8
2019-02-19T00:58:25.643Z,7.8
2019-02-19T00:59:27.189Z,7.8
2019-02-19T01:00:28.608Z,7.8
2019-02-19T01:01:29.870Z,7.9
2019-02-19T01:02:31.435Z,7.8
2019-02-19T01:03:32.989Z,7.8
2019-02-19T01:04:34.390Z,7.8
2019-02-19T01:05:35.814Z,7.9
2019-02-19T01:06:37.339Z,7.8
2019-02-19T01:07:38.951Z,7.9
2019-02-19T01:08:40.496Z,7.8
2019-02-19T01:09:42.042Z,7.8
2019-02-19T01:10:43.565Z,7.8
2019-02-19T01:11:44.779Z,7.8
2019-02-19T01:12:46.186Z,7.9
2019-02-19T01:13:47.747Z,7.8
2019-02-19T01:14:49.279Z,7.8
2019-02-19T01:15:50.652Z,7.8
2019-02-19T01:16:52.027Z,7.8
2019-02-19T01:17:53.251Z,7.8
2019-02-19T01:18:54.781Z,7.8
2019-02-19T01:19:56.310Z,7.8
2019-02-19T01:20:57.854Z,7.8
2019-02-19T01:21:59.380Z,7.9
2019-02-19T01:23:00.916Z,7.9
2019-02-19T01:24:02.444Z,7.9
2019-02-19T01:25:03.814Z,7.8
2019-02-19T01:26:05.334Z,7.7
2019-02-19T01:27:06.698Z,7.7
2019-02-19T01:28:08.075Z,7.7
2019-02-19T01:29:09.154Z,7.7
2019-02-19T01:30:10.705Z,7.7
2019-02-19T01:31:12.223Z,7.7
2019-02-19T01:32:13.593Z,7.7
2019-02-19T01:33:15.135Z,7.7
2019-02-19T01:34:16.682Z,7.7
2019-02-19T01:35:18.223Z,7.7
2019-02-19T01:36:19.743Z,7.7
2019-02-19T01:37:20.936Z,7.7
2019-02-19T01:38:22.476Z,7.7
2019-02-19T01:39:24.048Z,7.7
2019-02-19T01:40:25.621Z,7.7
2019-02-19T01:41:27.004Z,7.7
2019-02-19T01:42:28.522Z,7.7
2019-02-19T01:43:30.076Z,7.7
2019-02-19T01:44:31.473Z,7.7
2019-02-19T01:45:35.728Z,7.8
2019-02-19T01:46:37.267Z,7.8
2019-02-19T01:47:38.812Z,7.8
2019-02-19T01:48:40.341Z,7.8
2019-02-19T01:49:41.870Z,7.8
2019-02-19T01:50:43.381Z,7.8
2019-02-19T01:51:44.784Z,7.8
2019-02-19T01:52:46.365Z,7.8
2019-02-19T01:53:47.742Z,7.8
2019-02-19T01:54:49.114Z,7.8
2019-02-19T01:55:50.336Z,7.8
2019-02-19T01:56:51.714Z,7.8
2019-02-19T01:57:53.095Z,7.8
2019-02-19T01:58:54.575Z,7.8
2019-02-19T01:59:56.142Z,7.8
2019-02-19T02:00:57.538Z,7.8
2019-02-19T02:01:59.070Z,7.8
2019-02-19T02:03:00.594Z,7.8
2019-02-19T02:04:02.107Z,7.8
2019-02-19T02:05:03.657Z,7.8
2019-02-19T02:06:04.897Z,7.8
2019-02-19T02:07:06.480Z,7.8
2019-02-19T02:08:07.906Z,7.7
2019-02-19T02:09:09.464Z,7.6
2019-02-19T02:10:10.853Z,7.5
2019-02-19T02:11:12.292Z,7.4
2019-02-19T02:12:13.865Z,7.3
2019-02-19T02:13:15.218Z,7.1
2019-02-19T02:14:16.747Z,7.2
2019-02-19T02:15:18.124Z,7.1
2019-02-19T02:16:19.480Z,7.2
2019-02-19T02:17:20.998Z,7.1
2019-02-19T02:18:22.533Z,7.2
2019-02-19T02:19:24.059Z,7.2
2019-02-19T02:20:25.445Z,7.1
2019-02-19T02:21:26.819Z,7.2
2019-02-19T02:22:28.348Z,7.2
2019-02-19T02:23:29.738Z,7.1
2019-02-19T02:24:31.274Z,7.2
2019-02-19T02:25:32.670Z,7.1
2019-02-19T02:26:34.032Z,7.1
2019-02-19T02:27:35.419Z,7.1
2019-02-19T02:28:37.004Z,7.1
2019-02-19T02:29:38.573Z,7.1
2019-02-19T02:30:40.130Z,7.1
2019-02-19T02:31:41.364Z,7.1
2019-02-19T02:32:42.764Z,7.1
2019-02-19T02:33:44.312Z,7.1
2019-02-19T02:34:45.553Z,7.1
2019-02-19T02:35:46.805Z,7.1
2019-02-19T02:36:48.374Z,7.1
2019-02-19T02:37:49.910Z,7.1
2019-02-19T02:38:51.337Z,7.1
2019-02-19T02:39:52.697Z,7.1
2019-02-19T02:40:56.275Z,7.1
2019-02-19T02:41:57.837Z,7.1
2019-02-19T02:42:59.382Z,7.1
2019-02-19T02:44:00.923Z,7.1
2019-02-19T02:45:02.394Z,7.1
2019-02-19T02:46:03.714Z,7.1
2019-02-19T02:47:05.277Z,7.1
2019-02-19T02:48:06.805Z,7.1
2019-02-19T02:49:08.193Z,7.1
2019-02-19T02:50:09.516Z,7.2
2019-02-19T02:51:11.073Z,7.2
2019-02-19T02:52:12.606Z,7.2
2019-02-19T02:53:13.980Z,7.2
2019-02-19T02:54:15.765Z,7.2
2019-02-19T02:55:17.155Z,7.2
2019-02-19T02:56:18.379Z,7.2
2019-02-19T02:57:19.606Z,7.2
2019-02-19T02:58:21.192Z,7.2
2019-02-19T02:59:22.744Z,7.2
2019-02-19T03:00:24.156Z,7.2
2019-02-19T03:01:25.564Z,7.2
2019-02-19T03:02:26.982Z,7.2
2019-02-19T03:03:28.543Z,7.2
2019-02-19T03:04:30.117Z,7.2
2019-02-19T03:05:31.500Z,7.3
2019-02-19T03:06:33.036Z,7.3
2019-02-19T03:07:34.284Z,7.3
2019-02-19T03:08:35.837Z,7.4
2019-02-19T03:09:36.797Z,7.4
2019-02-19T03:10:38.208Z,7.5
2019-02-19T03:11:39.583Z,7.5
2019-02-19T03:12:40.983Z,7.6
2019-02-19T03:13:42.368Z,7.7
2019-02-19T03:14:43.755Z,7.7
2019-02-19T03:15:45.172Z,7.7
2019-02-19T03:16:46.706Z,7.7
2019-02-19T03:17:48.264Z,7.8
2019-02-19T03:18:49.477Z,7.8
2019-02-19T03:19:51.011Z,7.9
2019-02-19T03:20:52.455Z,7.9
2019-02-19T03:21:54.048Z,7.9
2019-02-19T03:22:55.572Z,7.9
2019-02-19T03:23:56.956Z,7.9
2019-02-19T03:24:58.484Z,7.2
2019-02-19T03:25:59.852Z,7.2
2019-02-19T03:27:01.083Z,7.3
2019-02-19T03:28:02.634Z,7.3
2019-02-19T03:29:04.192Z,7.3
2019-02-19T03:30:05.781Z,7.3
2019-02-19T03:31:07.242Z,7.3
2019-02-19T03:32:08.876Z,7.4
2019-02-19T03:33:10.598Z,7.4
2019-02-19T03:34:12.047Z,7.4
2019-02-19T03:35:13.294Z,7.4
2019-02-19T03:36:14.852Z,7.4
2019-02-19T03:37:16.224Z,7.5
2019-02-19T03:38:17.763Z,7.5
2019-02-19T03:39:19.182Z,7.5
2019-02-19T03:40:20.732Z,7.5
2019-02-19T03:41:21.814Z,7.5
2019-02-19T03:42:23.042Z,7.5
2019-02-19T03:43:24.264Z,7.5
2019-02-19T03:44:25.851Z,7.5
2019-02-19T03:45:27.466Z,7.5
2019-02-19T03:46:31.068Z,7.5
2019-02-19T03:47:32.308Z,7.5
2019-02-19T03:48:33.840Z,7.6
2019-02-19T03:49:35.447Z,7.6
2019-02-19T03:50:36.978Z,7.6
2019-02-19T03:51:38.522Z,7.7
2019-02-19T03:52:39.922Z,7.7
2019-02-19T03:53:41.489Z,7.7
2019-02-19T03:54:42.710Z,7.7
2019-02-19T03:55:44.090Z,7.7
2019-02-19T03:56:45.514Z,7.7
2019-02-19T03:57:47.237Z,7.7
2019-02-19T03:58:48.693Z,7.7
2019-02-19T03:59:50.276Z,7.7
2019-02-19T04:00:51.929Z,7.7
2019-02-19T04:01:53.561Z,7.8
2019-02-19T04:02:54.882Z,7.8
2019-02-19T04:03:56.354Z,7.8
2019-02-19T04:04:57.928Z,7.8
2019-02-19T04:05:59.316Z,7.9
2019-02-19T04:07:00.894Z,7.9
2019-02-19T04:08:02.427Z,7.9
2019-02-19T04:09:03.675Z,7.9
2019-02-19T04:10:05.316Z,7.9
2019-02-19T04:11:06.875Z,7.8
2019-02-19T04:12:08.513Z,7.8
2019-02-19T04:13:10.090Z,7.7
2019-02-19T04:14:11.475Z,7.6
2019-02-19T04:15:13.324Z,7.5
2019-02-19T04:16:22.685Z,7.4
2019-02-19T04:17:24.090Z,7.3
2019-02-19T04:18:25.625Z,7.2
2019-02-19T04:19:27.167Z,7.2
2019-02-19T04:20:28.544Z,7.2
2019-02-19T04:21:30.089Z,7.2
2019-02-19T04:22:31.470Z,7.2
2019-02-19T04:23:33.011Z,7.2
2019-02-19T04:24:34.561Z,7.1
2019-02-19T04:25:36.100Z,7.1
2019-02-19T04:26:37.657Z,7.1
2019-02-19T04:27:39.058Z,7.1
2019-02-19T04:28:40.304Z,7.2
2019-02-19T04:29:41.383Z,7.2
2019-02-19T04:30:42.944Z,7.1
2019-02-19T04:31:44.344Z,7.2
2019-02-19T04:32:45.465Z,7.2
2019-02-19T04:33:46.978Z,7.2
2019-02-19T04:34:48.516Z,7.2
2019-02-19T04:35:50.044Z,7.2
2019-02-19T04:36:51.414Z,7.2
2019-02-19T04:37:52.637Z,7.3
2019-02-19T04:38:54.069Z,7.3
2019-02-19T04:39:55.482Z,7.4
2019-02-19T04:40:57.016Z,7.6
2019-02-19T04:41:58.567Z,7.7
2019-02-19T04:42:59.939Z,7.8
2019-02-19T04:44:01.326Z,7.9
2019-02-19T04:45:02.871Z,7.9
2019-02-19T04:46:04.094Z,7.9
2019-02-19T04:47:05.355Z,7.9
2019-02-19T04:48:06.803Z,7.4
2019-02-19T04:49:08.393Z,7.5
2019-02-19T04:50:09.970Z,7.6
2019-02-19T04:51:11.344Z,7.7
2019-02-19T04:52:12.872Z,7.8
2019-02-19T04:53:14.434Z,7.8
2019-02-19T04:54:15.804Z,7.9
2019-02-19T04:55:17.175Z,7.9
2019-02-19T04:56:18.686Z,7.9
2019-02-19T04:57:19.915Z,7.9
2019-02-19T04:58:21.307Z,7.9
2019-02-19T04:59:22.674Z,7.9
2019-02-19T05:00:24.055Z,7.9
2019-02-19T05:01:25.579Z,7.9
2019-02-19T05:02:26.815Z,7.8
2019-02-19T05:03:28.348Z,7.8
2019-02-19T05:04:29.885Z,7.8
2019-02-19T05:05:31.451Z,7.8
2019-02-19T05:06:33.002Z,7.7
2019-02-19T05:07:34.396Z,7.7
2019-02-19T05:08:35.935Z,7.6
2019-02-19T05:09:37.355Z,7.5
2019-02-19T05:10:38.945Z,7.5
2019-02-19T05:11:40.472Z,7.4
2019-02-19T05:12:42.015Z,7.4
2019-02-19T05:13:43.473Z,7.4
2019-02-19T05:14:45.012Z,7.3
2019-02-19T05:15:46.555Z,7.3
2019-02-19T05:16:48.113Z,7.3
2019-02-19T05:17:49.506Z,7.3
2019-02-19T05:18:50.725Z,7.2
2019-02-19T05:19:52.129Z,7.2
2019-02-19T05:20:53.746Z,7.3
2019-02-19T05:21:55.129Z,7.2
2019-02-19T05:22:56.354Z,7.2
2019-02-19T05:23:57.754Z,7.2
2019-02-19T05:24:59.365Z,7.2
2019-02-19T05:26:00.775Z,7.2
2019-02-19T05:27:02.384Z,7.2
2019-02-19T05:28:03.955Z,7.2
2019-02-19T05:29:06.105Z,7.2
2019-02-19T05:30:07.695Z,7.2
2019-02-19T05:31:09.222Z,7.2
2019-02-19T05:32:10.615Z,7.2
2019-02-19T05:33:12.022Z,7.2
2019-02-19T05:34:13.570Z,7.2
2019-02-19T05:35:14.977Z,7.2
2019-02-19T05:36:16.540Z,7.2
2019-02-19T05:37:18.104Z,7.2
2019-02-19T05:38:19.505Z,7.2
2019-02-19T05:39:21.062Z,7.2
2019-02-19T05:40:22.274Z,7.2
2019-02-19T05:41:23.815Z,7.2
2019-02-19T05:42:25.378Z,7.2
2019-02-19T05:43:26.903Z,7.2
2019-02-19T05:44:28.433Z,7.2
2019-02-19T05:45:29.988Z,7.2
2019-02-19T05:46:31.570Z,7.2
2019-02-19T05:47:32.859Z,7.2
2019-02-19T05:48:34.387Z,7.2
2019-02-19T05:49:35.945Z,7.2
2019-02-19T05:50:37.499Z,7.2
2019-02-19T05:51:39.038Z,7.2
2019-02-19T05:52:40.597Z,7.2
2019-02-19T05:53:42.182Z,7.2
2019-02-19T05:54:43.714Z,7.2
2019-02-19T05:55:45.258Z,7.2
2019-02-19T05:56:46.644Z,7.2
2019-02-19T05:57:48.186Z,7.2
2019-02-19T05:58:49.734Z,7.2
2019-02-19T05:59:51.117Z,7.3
2019-02-19T06:00:52.662Z,7.3
2019-02-19T06:01:54.195Z,7.3
2019-02-19T06:02:55.792Z,7.4
2019-02-19T06:03:57.343Z,7.5
2019-02-19T06:04:58.724Z,7.6
2019-02-19T06:06:00.247Z,7.6
2019-02-19T06:07:01.624Z,7.7
2019-02-19T06:08:03.008Z,7.7
2019-02-19T06:09:04.409Z,7.7
2019-02-19T06:10:05.962Z,7.8
2019-02-19T06:11:07.377Z,7.7
2019-02-19T06:12:08.771Z,7.7
2019-02-19T06:13:10.178Z,7.7
2019-02-19T06:14:11.764Z,7.7
2019-02-19T06:15:12.996Z,7.6
2019-02-19T06:16:14.528Z,7.6
2019-02-19T06:17:15.759Z,7.5
2019-02-19T06:18:17.185Z,7.5
2019-02-19T06:19:18.705Z,7.4
2019-02-19T06:20:20.245Z,7.3
2019-02-19T06:21:21.797Z,7.3
2019-02-19T06:22:23.390Z,7.2
2019-02-19T06:23:24.956Z,7.2
2019-02-19T06:24:26.567Z,7.2
2019-02-19T06:25:28.258Z,7.2
2019-02-19T06:26:29.369Z,7.2
2019-02-19T06:27:30.955Z,7.2
2019-02-19T06:28:32.528Z,7.2
2019-02-19T06:29:34.257Z,7.3
2019-02-19T06:30:35.811Z,7.3
2019-02-19T06:31:37.374Z,7.4
2019-02-19T06:32:38.834Z,7.4
2019-02-19T06:33:40.390Z,7.5
2019-02-19T06:34:41.949Z,7.6
2019-02-19T06:35:43.495Z,7.8
2019-02-19T06:36:45.037Z,7.8
2019-02-19T06:37:46.592Z,7.9
2019-02-19T06:38:48.120Z,7.9
2019-02-19T06:39:49.682Z,7.9
2019-02-19T06:40:51.079Z,7.9
2019-02-19T06:41:52.335Z,7.9
2019-02-19T06:42:53.869Z,7.9
2019-02-19T06:43:55.380Z,7.9
2019-02-19T06:44:56.929Z,7.9
2019-02-19T06:45:58.447Z,7.8
2019-02-19T06:47:08.301Z,7.8
2019-02-19T06:48:09.839Z,7.8
2019-02-19T06:49:11.225Z,7.8
2019-02-19T06:50:12.765Z,7.8
2019-02-19T06:51:14.317Z,7.8
2019-02-19T06:52:15.895Z,7.8
2019-02-19T06:53:17.485Z,7.8
2019-02-19T06:54:18.709Z,7.8
2019-02-19T06:55:20.241Z,7.8
2019-02-19T06:56:21.773Z,7.8
2019-02-19T06:57:23.306Z,7.7
2019-02-19T06:58:25.038Z,7.7
2019-02-19T06:59:26.601Z,7.7
2019-02-19T07:00:28.165Z,7.7
2019-02-19T07:01:29.569Z,7.7
2019-02-19T07:02:30.964Z,7.7
2019-02-19T07:03:32.042Z,7.7
2019-02-19T07:04:33.306Z,7.7
2019-02-19T07:05:34.697Z,7.6
2019-02-19T07:06:36.086Z,7.6
2019-02-19T07:07:37.471Z,7.6
2019-02-19T07:08:39.061Z,7.5
2019-02-19T07:09:40.625Z,7.5
2019-02-19T07:10:42.177Z,7.5
2019-02-19T07:11:43.752Z,7.4
2019-02-19T07:12:45.302Z,7.4
2019-02-19T07:13:46.677Z,7.4
2019-02-19T07:14:48.225Z,7.4
2019-02-19T07:15:49.643Z,7.4
2019-02-19T07:16:51.050Z,7.4
2019-02-19T07:17:52.603Z,7.5
2019-02-19T07:18:54.166Z,7.5
2019-02-19T07:19:55.730Z,7.5
2019-02-19T07:20:56.958Z,7.5
2019-02-19T07:21:58.545Z,7.5
2019-02-19T07:22:59.967Z,7.5
2019-02-19T07:24:05.947Z,7.5
2019-02-19T07:25:07.366Z,7.4
2019-02-19T07:26:08.732Z,7.4
2019-02-19T07:27:10.185Z,7.4
2019-02-19T07:28:11.574Z,7.4
2019-02-19T07:29:12.810Z,7.4
2019-02-19T07:30:14.379Z,7.5
2019-02-19T07:31:15.766Z,7.5
2019-02-19T07:32:17.156Z,7.6
2019-02-19T07:33:18.553Z,7.5
2019-02-19T07:34:20.103Z,7.6
2019-02-19T07:35:21.493Z,7.6
2019-02-19T07:36:22.880Z,7.7
2019-02-19T07:37:24.105Z,7.7
2019-02-19T07:38:25.495Z,7.6
2019-02-19T07:39:26.884Z,7.5
2019-02-19T07:40:28.028Z,7.4
2019-02-19T07:41:29.566Z,7.4
2019-02-19T07:42:30.792Z,7.3
2019-02-19T07:43:32.347Z,7.2
2019-02-19T07:44:33.821Z,7.2
2019-02-19T07:45:35.385Z,7.2
2019-02-19T07:46:36.982Z,7.2
2019-02-19T07:47:38.566Z,7.2
2019-02-19T07:48:39.951Z,7.1
2019-02-19T07:49:41.489Z,7.1
2019-02-19T07:50:42.870Z,7.2
2019-02-19T07:51:44.424Z,7.2
2019-02-19T07:52:45.989Z,7.2
2019-02-19T07:53:47.517Z,7.2
2019-02-19T07:54:48.745Z,7.2
2019-02-19T07:55:50.120Z,7.2
2019-02-19T07:56:51.489Z,7.2
2019-02-19T07:57:53.046Z,7.2
2019-02-19T07:58:54.322Z,7.2
2019-02-19T07:59:55.877Z,7.2
2019-02-19T08:00:57.267Z,7.2
2019-02-19T08:02:01.083Z,7.2
2019-02-19T08:03:05.283Z,7.2
2019-02-19T08:04:06.747Z,7.3
2019-02-19T08:05:08.441Z,7.3
2019-02-19T08:06:09.946Z,7.3
2019-02-19T08:07:11.484Z,7.4
2019-02-19T08:08:12.871Z,7.5
2019-02-19T08:09:14.428Z,7.6
2019-02-19T08:10:15.980Z,7.6
2019-02-19T08:11:17.378Z,7.6
2019-02-19T08:12:18.753Z,7.6
2019-02-19T08:13:20.122Z,7.6
2019-02-19T08:14:21.553Z,7.7
2019-02-19T08:15:23.091Z,7.7
2019-02-19T08:16:24.490Z,7.6
2019-02-19T08:17:34.909Z,7.6
2019-02-19T08:18:36.476Z,7.6
2019-02-19T08:19:37.866Z,7.6
2019-02-19T08:20:39.428Z,7.6
2019-02-19T08:21:40.962Z,7.5
2019-02-19T08:22:42.528Z,7.4
2019-02-19T08:23:44.109Z,7.3
2019-02-19T08:24:45.684Z,7.3
2019-02-19T08:25:47.098Z,7.2
2019-02-19T08:26:48.316Z,7.2
2019-02-19T08:27:51.884Z,7.2
2019-02-19T08:28:53.441Z,7.2
2019-02-19T08:29:54.979Z,7.2
2019-02-19T08:30:56.227Z,7.2
2019-02-19T08:31:57.789Z,7.2
2019-02-19T08:32:59.236Z,7.2
2019-02-19T08:34:00.780Z,7.2
2019-02-19T08:35:02.366Z,7.2
2019-02-19T08:36:03.772Z,7.2
2019-02-19T08:37:05.337Z,7.2
2019-02-19T08:38:06.566Z,7.2
2019-02-19T08:39:08.195Z,7.2
2019-02-19T08:40:09.862Z,7.1
2019-02-19T08:41:11.275Z,7.2
2019-02-19T08:42:12.670Z,7.2
2019-02-19T08:43:14.071Z,7.2
2019-02-19T08:44:15.505Z,7.2
2019-02-19T08:45:17.067Z,7.2
2019-02-19T08:46:18.611Z,7.2
2019-02-19T08:47:20.024Z,7.2
2019-02-19T08:48:21.603Z,7.2
2019-02-19T08:49:23.187Z,7.2
2019-02-19T08:50:24.789Z,7.2
2019-02-19T08:51:26.408Z,7.2
2019-02-19T08:52:27.657Z,7.2
2019-02-19T08:53:29.240Z,7.3
2019-02-19T08:54:30.664Z,7.4
2019-02-19T08:55:32.073Z,7.4
2019-02-19T08:56:33.475Z,7.5
2019-02-19T08:57:35.045Z,7.6
2019-02-19T08:58:36.645Z,7.7
2019-02-19T08:59:38.063Z,7.7
2019-02-19T09:00:39.916Z,7.8
2019-02-19T09:01:41.486Z,7.8
2019-02-19T09:02:43.119Z,7.8
2019-02-19T09:03:44.688Z,7.8
2019-02-19T09:04:45.932Z,7.8
2019-02-19T09:05:47.467Z,7.8
2019-02-19T09:06:49.017Z,7.8
2019-02-19T09:07:50.594Z,7.8
2019-02-19T09:08:52.195Z,7.9
2019-02-19T09:09:53.602Z,7.9
2019-02-19T09:10:55.152Z,7.8
2019-02-19T09:11:56.717Z,7.9
2019-02-19T09:12:58.109Z,7.8
2019-02-19T09:13:59.557Z,7.8
2019-02-19T09:15:01.351Z,7.9
2019-02-19T09:16:02.919Z,7.8
2019-02-19T09:17:04.332Z,7.8
2019-02-19T09:18:05.752Z,7.8
2019-02-19T09:19:07.128Z,7.8
2019-02-19T09:20:08.533Z,7.8
2019-02-19T09:21:09.934Z,7.9
2019-02-19T09:22:11.562Z,7.9
2019-02-19T09:23:13.135Z,7.9
2019-02-19T09:24:14.546Z,7.9
2019-02-19T09:25:15.936Z,7.9
2019-02-19T09:26:17.483Z,7.9
2019-02-19T09:27:18.895Z,7.9
2019-02-19T09:28:20.123Z,7.8
2019-02-19T09:29:21.652Z,7.8
2019-02-19T09:30:23.208Z,7.8
2019-02-19T09:31:24.582Z,7.8
2019-02-19T09:32:26.002Z,7.8
2019-02-19T09:33:27.551Z,7.8
2019-02-19T09:34:28.916Z,7.8
2019-02-19T09:35:30.148Z,7.9
2019-02-19T09:36:31.694Z,7.9
2019-02-19T09:37:33.252Z,7.9
2019-02-19T09:38:34.851Z,7.9
2019-02-19T09:39:36.414Z,7.9
2019-02-19T09:40:37.988Z,7.9
2019-02-19T09:41:39.535Z,7.8
2019-02-19T09:42:40.775Z,7.8
2019-02-19T09:43:41.901Z,7.8
2019-02-19T09:44:43.304Z,7.7
2019-02-19T09:45:44.712Z,7.7
2019-02-19T09:46:46.266Z,7.6
2019-02-19T09:47:47.706Z,7.5
2019-02-19T09:48:49.112Z,7.4
2019-02-19T09:49:50.660Z,7.3
2019-02-19T09:50:52.204Z,7.2
2019-02-19T09:51:53.755Z,7.2
2019-02-19T09:53:01.706Z,7.2
2019-02-19T09:54:03.226Z,7.1
2019-02-19T09:55:04.791Z,7.2
2019-02-19T09:56:06.403Z,7.2
2019-02-19T09:57:08.294Z,7.2
2019-02-19T09:58:09.865Z,7.1
2019-02-19T09:59:11.395Z,7.2
2019-02-19T10:00:12.955Z,7.1
2019-02-19T10:01:14.541Z,7.2
2019-02-19T10:02:16.161Z,7.2
2019-02-19T10:03:17.398Z,7.1
2019-02-19T10:04:18.975Z,7.2
2019-02-19T10:05:20.513Z,7.2
2019-02-19T10:06:22.095Z,7.2
2019-02-19T10:07:23.638Z,7.2
2019-02-19T10:08:25.221Z,7.2
2019-02-19T10:09:26.143Z,7.2
2019-02-19T10:10:27.564Z,7.2
2019-02-19T10:11:29.134Z,7.2
2019-02-19T10:12:30.672Z,7.2
2019-02-19T10:13:32.097Z,7.2
2019-02-19T10:14:33.682Z,7.2
2019-02-19T10:15:35.258Z,7.2
2019-02-19T10:16:43.442Z,7.3
2019-02-19T10:17:45.014Z,7.3
2019-02-19T10:18:46.567Z,7.4
2019-02-19T10:19:47.976Z,7.5
2019-02-19T10:20:49.554Z,7.7
2019-02-19T10:21:51.115Z,7.8
2019-02-19T10:22:52.671Z,7.9
2019-02-19T10:23:54.196Z,7.3
2019-02-19T10:24:55.755Z,7.5
2019-02-19T10:25:57.148Z,7.6
2019-02-19T10:26:58.683Z,7.8
2019-02-19T10:28:00.235Z,7.9
2019-02-19T10:29:01.614Z,7.9
2019-02-19T10:30:02.846Z,7.9
2019-02-19T10:31:04.394Z,7.8
2019-02-19T10:32:07.564Z,7.9
2019-02-19T10:33:09.112Z,7.9
2019-02-19T10:34:10.647Z,7.6
2019-02-19T10:35:12.068Z,7.7
2019-02-19T10:36:13.644Z,7.8
2019-02-19T10:37:15.188Z,7.9
2019-02-19T10:38:16.713Z,7.9
2019-02-19T10:39:18.094Z,7.9
2019-02-19T10:40:19.371Z,7.9
2019-02-19T10:41:20.777Z,7.9
2019-02-19T10:42:22.330Z,7.9
2019-02-19T10:43:24.859Z,7.9
2019-02-19T10:44:26.447Z,7.9
2019-02-19T10:45:27.830Z,7.9
2019-02-19T10:46:29.374Z,7.9
2019-02-19T10:47:30.916Z,7.9
2019-02-19T10:48:32.459Z,7.9
2019-02-19T10:49:33.995Z,7.9
2019-02-19T10:50:35.412Z,7.9
2019-02-19T10:51:36.986Z,7.9
2019-02-19T10:52:38.531Z,7.9
2019-02-19T10:53:39.918Z,7.9
2019-02-19T10:54:41.302Z,7.9
2019-02-19T10:55:42.846Z,7.8
2019-02-19T10:56:44.237Z,7.8
2019-02-19T10:57:45.786Z,7.8
2019-02-19T10:58:47.336Z,7.9
2019-02-19T10:59:48.891Z,7.9
2019-02-19T11:00:50.446Z,7.9
2019-02-19T11:01:51.840Z,7.9
2019-02-19T11:02:53.399Z,7.9
2019-02-19T11:03:54.767Z,7.9
2019-02-19T11:04:56.359Z,7.9
2019-02-19T11:05:57.932Z,7.9
2019-02-19T11:06:59.344Z,7.9
2019-02-19T11:08:00.891Z,7.9
2019-02-19T11:09:02.257Z,7.9
2019-02-19T11:10:03.713Z,7.8
2019-02-19T11:11:05.254Z,7.9
2019-02-19T11:12:06.672Z,7.9
2019-02-19T11:13:07.935Z,7.9
2019-02-19T11:14:09.479Z,7.9
2019-02-19T11:15:11.046Z,7.3
2019-02-19T11:16:12.587Z,7.4
2019-02-19T11:17:13.970Z,7.5
2019-02-19T11:18:15.510Z,7.5
2019-02-19T11:19:16.901Z,7.4
2019-02-19T11:20:18.326Z,7.4
2019-02-19T11:21:21.424Z,7.3
2019-02-19T11:22:22.976Z,7.2
2019-02-19T11:23:24.535Z,7.2
2019-02-19T11:24:25.953Z,7.2
2019-02-19T11:25:27.366Z,7.2
2019-02-19T11:26:28.788Z,7.2
2019-02-19T11:27:30.312Z,7.2
2019-02-19T11:28:31.973Z,7.2
2019-02-19T11:29:33.338Z,7.2
2019-02-19T11:30:34.894Z,7.2
2019-02-19T11:31:36.474Z,7.1
2019-02-19T11:32:38.229Z,7.2
2019-02-19T11:33:39.786Z,7.2
2019-02-19T11:34:41.228Z,7.2
2019-02-19T11:35:42.772Z,7.1
2019-02-19T11:36:44.332Z,7.1
2019-02-19T11:37:45.420Z,7.1
2019-02-19T11:38:47.036Z,7.2
2019-02-19T11:39:48.624Z,7.2
2019-02-19T11:40:50.193Z,7.2
2019-02-19T11:41:51.584Z,7.2
2019-02-19T11:42:53.142Z,7.2
2019-02-19T11:43:54.694Z,7.2
2019-02-19T11:44:55.942Z,7.2
2019-02-19T11:45:57.336Z,7.2
2019-02-19T11:46:58.759Z,7.2
2019-02-19T11:48:00.339Z,7.2
2019-02-19T11:49:01.912Z,7.2
2019-02-19T11:50:03.513Z,7.2
2019-02-19T11:51:04.931Z,7.2
2019-02-19T11:52:06.355Z,7.2
2019-02-19T11:53:07.923Z,7.2
2019-02-19T11:54:09.517Z,7.2
2019-02-19T11:55:11.089Z,7.3
2019-02-19T11:56:12.497Z,7.3
2019-02-19T11:57:13.909Z,7.4
2019-02-19T11:58:15.302Z,7.5
2019-02-19T11:59:16.744Z,7.6
2019-02-19T12:00:18.320Z,7.8
2019-02-19T12:01:19.926Z,7.9
2019-02-19T12:02:21.345Z,7.9
2019-02-19T12:03:22.922Z,7.9
2019-02-19T12:04:24.325Z,7.9
2019-02-19T12:05:25.896Z,7.9
2019-02-19T12:06:27.446Z,7.9
2019-02-19T12:07:28.683Z,7.9
2019-02-19T12:08:38.563Z,7.9
2019-02-19T12:09:40.366Z,7.9
2019-02-19T12:10:41.916Z,7.9
2019-02-19T12:11:43.529Z,7.9
2019-02-19T12:12:44.925Z,7.9
2019-02-19T12:13:46.351Z,7.9
2019-02-19T12:14:48.044Z,7.9
2019-02-19T12:15:49.428Z,7.9
2019-02-19T12:16:51.045Z,7.9
2019-02-19T12:17:52.616Z,7.9
2019-02-19T12:18:54.202Z,7.9
2019-02-19T12:19:55.751Z,7.9
2019-02-19T12:20:57.286Z,7.9
2019-02-19T12:21:58.894Z,7.9
2019-02-19T12:23:00.312Z,7.9
2019-02-19T12:24:01.876Z,7.9
2019-02-19T12:25:03.356Z,7.9
2019-02-19T12:26:04.438Z,7.9
2019-02-19T12:27:09.783Z,7.9
2019-02-19T12:28:11.396Z,7.9
2019-02-19T12:29:12.953Z,7.9
2019-02-19T12:30:14.406Z,7.9
2019-02-19T12:31:15.947Z,7.9
2019-02-19T12:32:19.431Z,7.9
2019-02-19T12:33:20.991Z,7.9
2019-02-19T12:34:22.566Z,7.7
2019-02-19T12:35:24.184Z,7.7
2019-02-19T12:36:25.631Z,7.8
2019-02-19T12:37:27.200Z,7.8
2019-02-19T12:38:28.447Z,7.9
2019-02-19T12:39:29.910Z,7.9
2019-02-19T12:40:31.492Z,7.9
2019-02-19T12:41:33.065Z,7.9
2019-02-19T12:42:34.480Z,7.8
2019-02-19T12:43:35.731Z,7.8
2019-02-19T12:44:37.123Z,7.8
2019-02-19T12:45:38.726Z,7.8
2019-02-19T12:46:40.348Z,7.8
2019-02-19T12:47:41.595Z,7.8
2019-02-19T12:48:43.047Z,7.8
2019-02-19T12:49:44.714Z,7.8
2019-02-19T12:50:46.348Z,7.8
2019-02-19T12:51:47.841Z,7.9
2019-02-19T12:52:49.517Z,7.9
2019-02-19T12:53:51.087Z,7.9
2019-02-19T12:54:52.664Z,7.9
2019-02-19T12:55:53.779Z,7.8
2019-02-19T12:56:55.189Z,7.8
2019-02-19T12:57:56.785Z,7.7
2019-02-19T12:58:58.040Z,7.6
2019-02-19T12:59:59.417Z,7.5
2019-02-19T13:01:00.822Z,7.4
2019-02-19T13:02:02.383Z,7.3
2019-02-19T13:03:03.961Z,7.2
2019-02-19T13:04:05.216Z,7.2
2019-02-19T13:05:06.780Z,7.1
2019-02-19T13:06:08.364Z,7.2
2019-02-19T13:07:09.846Z,7.1
2019-02-19T13:08:11.411Z,7.1
2019-02-19T13:09:12.895Z,7.1
2019-02-19T13:10:14.136Z,7.1
2019-02-19T13:11:15.525Z,7.1
2019-02-19T13:12:17.140Z,7.1
2019-02-19T13:13:18.699Z,7.1
2019-02-19T13:14:20.133Z,7.1
2019-02-19T13:15:21.695Z,7.2
2019-02-19T13:16:22.946Z,7.2
2019-02-19T13:17:24.526Z,7.2
2019-02-19T13:18:26.093Z,7.2
2019-02-19T13:19:27.323Z,7.2
2019-02-19T13:20:28.593Z,7.2
2019-02-19T13:21:30.079Z,7.2
2019-02-19T13:22:31.525Z,7.2
2019-02-19T13:23:33.087Z,7.2
2019-02-19T13:24:34.688Z,7.2
2019-02-19T13:25:36.265Z,7.2
2019-02-19T13:26:37.697Z,7.2
2019-02-19T13:27:38.927Z,7.2
2019-02-19T13:28:40.169Z,7.2
2019-02-19T13:29:41.727Z,7.3
2019-02-19T13:30:43.141Z,7.4
2019-02-19T13:31:44.694Z,7.4
2019-02-19T13:32:45.970Z,7.5
2019-02-19T13:33:47.375Z,7.6
2019-02-19T13:34:48.914Z,7.7
2019-02-19T13:35:52.203Z,7.7
2019-02-19T13:36:53.893Z,7.8
2019-02-19T13:37:55.485Z,7.9
2019-02-19T13:38:57.040Z,7.9
2019-02-19T13:39:58.495Z,7.9
2019-02-19T13:41:00.472Z,7.9
2019-02-19T13:42:02.425Z,7.9
2019-02-19T13:43:03.753Z,7.9
2019-02-19T13:44:05.322Z,7.9
2019-02-19T13:45:06.736Z,7.9
2019-02-19T13:46:08.283Z,7.9
2019-02-19T13:47:09.843Z,7.9
2019-02-19T13:48:11.395Z,7.9
2019-02-19T13:49:14.012Z,7.9
2019-02-19T13:50:15.587Z,7.9
2019-02-19T13:51:16.998Z,7.9
2019-02-19T13:52:26.145Z,7.9
2019-02-19T13:53:27.514Z,7.9
2019-02-19T13:54:29.057Z,7.9
2019-02-19T13:55:30.609Z,7.9
2019-02-19T13:56:32.028Z,7.9
2019-02-19T13:57:33.593Z,7.9
2019-02-19T13:58:35.139Z,7.9
2019-02-19T13:59:36.391Z,7.8
2019-02-19T14:00:37.658Z,7.8
2019-02-19T14:01:38.750Z,7.9
2019-02-19T14:02:40.331Z,7.9
2019-02-19T14:03:41.767Z,7.9
2019-02-19T14:04:43.363Z,7.9
2019-02-19T14:05:44.776Z,7.9
2019-02-19T14:06:46.421Z,7.9
2019-02-19T14:07:48.650Z,7.9
2019-02-19T14:08:50.263Z,7.9